sensor_id;sensor_type;location;lat;lon;timestamp;temperature;humidity
3478;DHT22;37937;61.490;23.506;2023-06-14T00:00:10;13.80;21.10
3478;DHT22;37937;61.490;23.506;2023-06-14T00:02:40;13.70;23.10
3478;DHT22;37937;61.490;23.506;2023-06-14T00:05:06;13.70;23.50
3478;DHT22;37937;61.490;23.506;2023-06-14T00:07:33;13.80;16.80
3478;DHT22;37937;61.490;23.506;2023-06-14T00:09:59;13.70;22.90
3478;DHT22;37937;61.490;23.506;2023-06-14T00:12:25;13.60;26.30
3478;DHT22;37937;61.490;23.506;2023-06-14T00:14:51;13.60;36.30
3478;DHT22;37937;61.490;23.506;2023-06-14T00:17:17;13.40;41.80
3478;DHT22;37937;61.490;23.506;2023-06-14T00:19:43;13.50;37.50
3478;DHT22;37937;61.490;23.506;2023-06-14T00:22:09;13.50;29.80
3478;DHT22;37937;61.490;23.506;2023-06-14T00:24:35;13.40;50.50
3478;DHT22;37937;61.490;23.506;2023-06-14T00:27:01;13.20;59.20
3478;DHT22;37937;61.490;23.506;2023-06-14T00:29:27;13.30;41.40
3478;DHT22;37937;61.490;23.506;2023-06-14T00:31:53;13.40;29.70
3478;DHT22;37937;61.490;23.506;2023-06-14T00:34:18;13.60;23.00
3478;DHT22;37937;61.490;23.506;2023-06-14T00:36:44;13.60;24.00
3478;DHT22;37937;61.490;23.506;2023-06-14T00:39:10;13.60;26.00
3478;DHT22;37937;61.490;23.506;2023-06-14T00:41:36;13.50;26.60
3478;DHT22;37937;61.490;23.506;2023-06-14T00:44:01;13.50;25.90
3478;DHT22;37937;61.490;23.506;2023-06-14T00:46:27;13.50;27.20
3478;DHT22;37937;61.490;23.506;2023-06-14T00:48:53;13.40;32.10
3478;DHT22;37937;61.490;23.506;2023-06-14T00:51:19;13.30;44.80
3478;DHT22;37937;61.490;23.506;2023-06-14T00:53:45;13.30;30.80
3478;DHT22;37937;61.490;23.506;2023-06-14T00:56:14;13.40;48.60
3478;DHT22;37937;61.490;23.506;2023-06-14T00:58:40;13.30;34.60
3478;DHT22;37937;61.490;23.506;2023-06-14T01:01:06;13.30;36.40
3478;DHT22;37937;61.490;23.506;2023-06-14T01:03:32;13.30;35.60
3478;DHT22;37937;61.490;23.506;2023-06-14T01:06:23;13.40;37.60
3478;DHT22;37937;61.490;23.506;2023-06-14T01:09:37;13.40;31.40
3478;DHT22;37937;61.490;23.506;2023-06-14T01:11:41;13.40;27.20
3478;DHT22;37937;61.490;23.506;2023-06-14T01:14:10;13.50;28.20
3478;DHT22;37937;61.490;23.506;2023-06-14T01:16:37;13.50;29.80
3478;DHT22;37937;61.490;23.506;2023-06-14T01:19:05;13.50;31.90
3478;DHT22;37937;61.490;23.506;2023-06-14T01:21:31;13.50;29.30
3478;DHT22;37937;61.490;23.506;2023-06-14T01:24:07;13.50;27.10
3478;DHT22;37937;61.490;23.506;2023-06-14T01:26:34;13.50;22.20
3478;DHT22;37937;61.490;23.506;2023-06-14T01:29:00;13.50;27.30
3478;DHT22;37937;61.490;23.506;2023-06-14T01:31:26;13.40;28.30
3478;DHT22;37937;61.490;23.506;2023-06-14T01:33:52;13.40;38.60
3478;DHT22;37937;61.490;23.506;2023-06-14T01:36:18;13.30;40.20
3478;DHT22;37937;61.490;23.506;2023-06-14T01:38:45;13.40;29.80
3478;DHT22;37937;61.490;23.506;2023-06-14T01:41:11;13.30;43.20
3478;DHT22;37937;61.490;23.506;2023-06-14T01:43:37;13.40;29.30
3478;DHT22;37937;61.490;23.506;2023-06-14T01:46:03;13.40;29.90
3478;DHT22;37937;61.490;23.506;2023-06-14T01:48:30;13.40;48.20
3478;DHT22;37937;61.490;23.506;2023-06-14T01:50:55;13.30;43.20
3478;DHT22;37937;61.490;23.506;2023-06-14T01:53:21;13.30;33.50
3478;DHT22;37937;61.490;23.506;2023-06-14T01:55:47;13.40;29.50
3478;DHT22;37937;61.490;23.506;2023-06-14T01:58:14;13.40;33.30
3478;DHT22;37937;61.490;23.506;2023-06-14T02:00:41;13.40;37.80
3478;DHT22;37937;61.490;23.506;2023-06-14T02:03:08;13.40;40.10
3478;DHT22;37937;61.490;23.506;2023-06-14T02:05:34;13.40;44.00
3478;DHT22;37937;61.490;23.506;2023-06-14T02:08:00;13.40;36.30
3478;DHT22;37937;61.490;23.506;2023-06-14T02:10:26;13.40;35.00
3478;DHT22;37937;61.490;23.506;2023-06-14T02:12:51;13.40;37.40
3478;DHT22;37937;61.490;23.506;2023-06-14T02:15:17;13.40;31.00
3478;DHT22;37937;61.490;23.506;2023-06-14T02:17:47;13.40;33.80
3478;DHT22;37937;61.490;23.506;2023-06-14T02:20:14;13.50;35.10
3478;DHT22;37937;61.490;23.506;2023-06-14T02:22:40;13.50;32.90
3478;DHT22;37937;61.490;23.506;2023-06-14T02:25:07;13.50;39.80
3478;DHT22;37937;61.490;23.506;2023-06-14T02:27:33;13.50;29.00
3478;DHT22;37937;61.490;23.506;2023-06-14T02:29:59;13.60;22.60
3478;DHT22;37937;61.490;23.506;2023-06-14T02:32:25;13.70;24.10
3478;DHT22;37937;61.490;23.506;2023-06-14T02:34:52;13.80;23.40
3478;DHT22;37937;61.490;23.506;2023-06-14T02:37:19;13.80;25.50
3478;DHT22;37937;61.490;23.506;2023-06-14T02:39:44;13.80;25.60
3478;DHT22;37937;61.490;23.506;2023-06-14T02:42:10;13.80;32.60
3478;DHT22;37937;61.490;23.506;2023-06-14T02:44:36;13.80;31.60
3478;DHT22;37937;61.490;23.506;2023-06-14T02:47:02;13.80;27.00
3478;DHT22;37937;61.490;23.506;2023-06-14T02:49:28;13.90;34.00
3478;DHT22;37937;61.490;23.506;2023-06-14T02:51:53;13.90;33.90
3478;DHT22;37937;61.490;23.506;2023-06-14T02:54:19;14.00;24.10
3478;DHT22;37937;61.490;23.506;2023-06-14T02:56:44;14.10;27.80
3478;DHT22;37937;61.490;23.506;2023-06-14T02:59:10;14.10;26.90
3478;DHT22;37937;61.490;23.506;2023-06-14T03:01:36;14.10;21.10
3478;DHT22;37937;61.490;23.506;2023-06-14T03:04:04;14.20;22.20
3478;DHT22;37937;61.490;23.506;2023-06-14T03:06:30;14.30;15.60
3478;DHT22;37937;61.490;23.506;2023-06-14T03:08:59;14.40;22.00
3478;DHT22;37937;61.490;23.506;2023-06-14T03:11:25;14.40;19.20
3478;DHT22;37937;61.490;23.506;2023-06-14T03:13:51;14.60;20.30
3478;DHT22;37937;61.490;23.506;2023-06-14T03:16:17;14.60;18.40
3478;DHT22;37937;61.490;23.506;2023-06-14T03:18:50;14.70;17.20
3478;DHT22;37937;61.490;23.506;2023-06-14T03:21:16;14.80;17.60
3478;DHT22;37937;61.490;23.506;2023-06-14T03:23:43;15.00;18.90
3478;DHT22;37937;61.490;23.506;2023-06-14T03:26:09;15.00;21.60
3478;DHT22;37937;61.490;23.506;2023-06-14T03:28:35;15.20;14.20
3478;DHT22;37937;61.490;23.506;2023-06-14T03:31:00;15.40;14.20
3478;DHT22;37937;61.490;23.506;2023-06-14T03:33:26;15.60;17.20
3478;DHT22;37937;61.490;23.506;2023-06-14T03:35:52;15.80;14.00
3478;DHT22;37937;61.490;23.506;2023-06-14T03:38:18;16.00;10.50
3478;DHT22;37937;61.490;23.506;2023-06-14T03:40:44;16.20;9.80
3478;DHT22;37937;61.490;23.506;2023-06-14T03:43:09;16.30;10.10
3478;DHT22;37937;61.490;23.506;2023-06-14T03:45:35;16.50;11.30
3478;DHT22;37937;61.490;23.506;2023-06-14T03:48:01;16.70;9.50
3478;DHT22;37937;61.490;23.506;2023-06-14T03:50:26;16.90;8.30
3478;DHT22;37937;61.490;23.506;2023-06-14T03:52:52;17.10;8.70
3478;DHT22;37937;61.490;23.506;2023-06-14T03:55:18;17.30;6.50
3478;DHT22;37937;61.490;23.506;2023-06-14T03:57:44;17.40;3.90
3478;DHT22;37937;61.490;23.506;2023-06-14T04:00:10;17.50;3.20
3478;DHT22;37937;61.490;23.506;2023-06-14T04:02:36;17.70;1.70
3478;DHT22;37937;61.490;23.506;2023-06-14T04:05:02;17.90;1.00
3478;DHT22;37937;61.490;23.506;2023-06-14T04:07:28;18.10;1.00
3478;DHT22;37937;61.490;23.506;2023-06-14T04:09:54;18.50;1.00
3478;DHT22;37937;61.490;23.506;2023-06-14T04:12:19;18.80;1.00
3478;DHT22;37937;61.490;23.506;2023-06-14T04:14:46;19.20;1.00
3478;DHT22;37937;61.490;23.506;2023-06-14T04:17:11;19.30;1.00
3478;DHT22;37937;61.490;23.506;2023-06-14T04:19:37;19.90;1.00
3478;DHT22;37937;61.490;23.506;2023-06-14T04:22:03;20.10;1.00
3478;DHT22;37937;61.490;23.506;2023-06-14T04:24:28;20.60;1.00
3478;DHT22;37937;61.490;23.506;2023-06-14T04:27:00;20.90;1.00
3478;DHT22;37937;61.490;23.506;2023-06-14T04:29:26;20.80;1.00
3478;DHT22;37937;61.490;23.506;2023-06-14T04:31:53;21.10;1.00
3478;DHT22;37937;61.490;23.506;2023-06-14T04:34:19;21.20;1.00
3478;DHT22;37937;61.490;23.506;2023-06-14T04:36:47;21.40;1.00
3478;DHT22;37937;61.490;23.506;2023-06-14T04:39:18;21.50;1.00
3478;DHT22;37937;61.490;23.506;2023-06-14T04:41:44;22.00;1.00
3478;DHT22;37937;61.490;23.506;2023-06-14T04:44:11;22.30;1.00
3478;DHT22;37937;61.490;23.506;2023-06-14T04:46:40;22.10;1.00
3478;DHT22;37937;61.490;23.506;2023-06-14T04:49:12;22.20;1.00
3478;DHT22;37937;61.490;23.506;2023-06-14T04:51:39;22.50;1.00
3478;DHT22;37937;61.490;23.506;2023-06-14T04:54:05;22.10;1.00
3478;DHT22;37937;61.490;23.506;2023-06-14T04:56:35;22.30;1.00
3478;DHT22;37937;61.490;23.506;2023-06-14T04:59:02;22.30;1.00
3478;DHT22;37937;61.490;23.506;2023-06-14T05:01:30;22.70;1.00
3478;DHT22;37937;61.490;23.506;2023-06-14T05:03:57;22.50;1.00
3478;DHT22;37937;61.490;23.506;2023-06-14T05:06:23;22.90;1.00
3478;DHT22;37937;61.490;23.506;2023-06-14T05:08:49;23.10;1.00
3478;DHT22;37937;61.490;23.506;2023-06-14T05:11:14;23.30;1.00
3478;DHT22;37937;61.490;23.506;2023-06-14T05:13:42;23.10;1.00
3478;DHT22;37937;61.490;23.506;2023-06-14T05:16:08;23.70;1.00
3478;DHT22;37937;61.490;23.506;2023-06-14T05:18:34;23.70;1.00
3478;DHT22;37937;61.490;23.506;2023-06-14T05:21:01;23.70;1.00
3478;DHT22;37937;61.490;23.506;2023-06-14T05:23:26;24.10;1.00
3478;DHT22;37937;61.490;23.506;2023-06-14T05:25:52;23.90;1.00
3478;DHT22;37937;61.490;23.506;2023-06-14T05:28:18;24.20;1.00
3478;DHT22;37937;61.490;23.506;2023-06-14T05:30:44;24.80;1.00
3478;DHT22;37937;61.490;23.506;2023-06-14T05:33:09;24.40;1.00
3478;DHT22;37937;61.490;23.506;2023-06-14T05:35:35;24.80;1.00
3478;DHT22;37937;61.490;23.506;2023-06-14T05:38:03;24.40;1.00
3478;DHT22;37937;61.490;23.506;2023-06-14T05:40:28;24.70;1.00
3478;DHT22;37937;61.490;23.506;2023-06-14T05:42:54;24.50;1.00
3478;DHT22;37937;61.490;23.506;2023-06-14T05:45:20;24.30;1.00
3478;DHT22;37937;61.490;23.506;2023-06-14T05:47:48;24.50;1.00
3478;DHT22;37937;61.490;23.506;2023-06-14T05:50:13;24.50;1.00
3478;DHT22;37937;61.490;23.506;2023-06-14T05:52:39;24.70;1.00
3478;DHT22;37937;61.490;23.506;2023-06-14T05:55:04;25.10;1.00
3478;DHT22;37937;61.490;23.506;2023-06-14T05:57:31;25.00;1.00
3478;DHT22;37937;61.490;23.506;2023-06-14T05:59:57;25.30;1.00
3478;DHT22;37937;61.490;23.506;2023-06-14T06:02:22;25.20;1.00
3478;DHT22;37937;61.490;23.506;2023-06-14T06:04:48;25.50;1.00
3478;DHT22;37937;61.490;23.506;2023-06-14T06:07:13;25.00;1.00
3478;DHT22;37937;61.490;23.506;2023-06-14T06:09:41;25.00;1.00
3478;DHT22;37937;61.490;23.506;2023-06-14T06:12:07;25.30;1.00
3478;DHT22;37937;61.490;23.506;2023-06-14T06:14:33;24.80;1.00
3478;DHT22;37937;61.490;23.506;2023-06-14T06:16:58;24.80;1.00
3478;DHT22;37937;61.490;23.506;2023-06-14T06:19:24;25.00;1.00
3478;DHT22;37937;61.490;23.506;2023-06-14T06:21:50;25.30;1.00
3478;DHT22;37937;61.490;23.506;2023-06-14T06:24:15;24.90;1.00
3478;DHT22;37937;61.490;23.506;2023-06-14T06:26:41;24.90;1.00
3478;DHT22;37937;61.490;23.506;2023-06-14T06:29:07;24.80;1.00
3478;DHT22;37937;61.490;23.506;2023-06-14T06:31:32;25.20;1.00
3478;DHT22;37937;61.490;23.506;2023-06-14T06:33:58;25.20;1.00
3478;DHT22;37937;61.490;23.506;2023-06-14T06:36:24;25.00;1.00
3478;DHT22;37937;61.490;23.506;2023-06-14T06:38:50;25.40;1.00
3478;DHT22;37937;61.490;23.506;2023-06-14T06:41:15;24.70;1.00
3478;DHT22;37937;61.490;23.506;2023-06-14T06:43:41;24.50;1.00
3478;DHT22;37937;61.490;23.506;2023-06-14T06:46:07;25.10;1.00
3478;DHT22;37937;61.490;23.506;2023-06-14T06:48:32;25.00;1.00
3478;DHT22;37937;61.490;23.506;2023-06-14T06:50:58;25.40;1.00
3478;DHT22;37937;61.490;23.506;2023-06-14T06:53:24;25.10;1.00
3478;DHT22;37937;61.490;23.506;2023-06-14T06:55:49;25.00;1.00
3478;DHT22;37937;61.490;23.506;2023-06-14T06:58:15;24.70;1.00
3478;DHT22;37937;61.490;23.506;2023-06-14T07:00:41;24.90;1.00
3478;DHT22;37937;61.490;23.506;2023-06-14T07:03:06;24.70;1.00
3478;DHT22;37937;61.490;23.506;2023-06-14T07:05:32;24.60;1.00
3478;DHT22;37937;61.490;23.506;2023-06-14T07:07:58;24.70;1.00
3478;DHT22;37937;61.490;23.506;2023-06-14T07:10:23;24.70;1.00
3478;DHT22;37937;61.490;23.506;2023-06-14T07:12:50;24.70;1.00
3478;DHT22;37937;61.490;23.506;2023-06-14T07:15:16;24.60;1.00
3478;DHT22;37937;61.490;23.506;2023-06-14T07:17:41;25.50;1.00
3478;DHT22;37937;61.490;23.506;2023-06-14T07:20:08;25.50;1.00
3478;DHT22;37937;61.490;23.506;2023-06-14T07:22:37;25.50;1.00
3478;DHT22;37937;61.490;23.506;2023-06-14T07:25:04;25.30;1.00
3478;DHT22;37937;61.490;23.506;2023-06-14T07:27:30;25.50;1.00
3478;DHT22;37937;61.490;23.506;2023-06-14T07:29:55;25.30;1.00
3478;DHT22;37937;61.490;23.506;2023-06-14T07:32:21;25.10;1.00
3478;DHT22;37937;61.490;23.506;2023-06-14T07:34:46;24.80;1.00
3478;DHT22;37937;61.490;23.506;2023-06-14T07:37:12;25.50;1.00
3478;DHT22;37937;61.490;23.506;2023-06-14T07:39:40;25.40;1.00
3478;DHT22;37937;61.490;23.506;2023-06-14T07:42:06;24.90;1.00
3478;DHT22;37937;61.490;23.506;2023-06-14T07:44:32;24.80;1.00
3478;DHT22;37937;61.490;23.506;2023-06-14T07:46:57;24.70;1.00
3478;DHT22;37937;61.490;23.506;2023-06-14T07:49:25;24.90;1.00
3478;DHT22;37937;61.490;23.506;2023-06-14T07:51:51;24.50;1.00
3478;DHT22;37937;61.490;23.506;2023-06-14T07:54:16;24.60;1.00
3478;DHT22;37937;61.490;23.506;2023-06-14T07:56:43;24.90;1.00
3478;DHT22;37937;61.490;23.506;2023-06-14T07:59:09;24.80;1.00
3478;DHT22;37937;61.490;23.506;2023-06-14T08:01:35;25.00;1.00
3478;DHT22;37937;61.490;23.506;2023-06-14T08:04:01;25.20;1.00
3478;DHT22;37937;61.490;23.506;2023-06-14T08:06:26;25.50;1.00
3478;DHT22;37937;61.490;23.506;2023-06-14T08:08:52;25.00;1.00
3478;DHT22;37937;61.490;23.506;2023-06-14T08:11:18;25.00;1.00
3478;DHT22;37937;61.490;23.506;2023-06-14T08:13:43;25.20;1.00
3478;DHT22;37937;61.490;23.506;2023-06-14T08:16:09;25.30;1.00
3478;DHT22;37937;61.490;23.506;2023-06-14T08:18:36;25.00;1.00
3478;DHT22;37937;61.490;23.506;2023-06-14T08:21:01;25.30;1.00
3478;DHT22;37937;61.490;23.506;2023-06-14T08:23:28;25.70;1.00
3478;DHT22;37937;61.490;23.506;2023-06-14T08:25:53;25.50;1.00
3478;DHT22;37937;61.490;23.506;2023-06-14T08:28:20;26.10;1.00
3478;DHT22;37937;61.490;23.506;2023-06-14T08:30:45;25.40;1.00
3478;DHT22;37937;61.490;23.506;2023-06-14T08:33:11;26.30;1.00
3478;DHT22;37937;61.490;23.506;2023-06-14T08:35:36;26.30;1.00
3478;DHT22;37937;61.490;23.506;2023-06-14T08:38:03;25.70;1.00
3478;DHT22;37937;61.490;23.506;2023-06-14T08:40:29;25.80;1.00
3478;DHT22;37937;61.490;23.506;2023-06-14T08:42:55;26.10;1.00
3478;DHT22;37937;61.490;23.506;2023-06-14T08:45:21;26.50;1.00
3478;DHT22;37937;61.490;23.506;2023-06-14T08:47:47;26.60;1.00
3478;DHT22;37937;61.490;23.506;2023-06-14T08:50:19;26.30;1.00
3478;DHT22;37937;61.490;23.506;2023-06-14T08:52:45;25.60;1.00
3478;DHT22;37937;61.490;23.506;2023-06-14T08:55:14;26.10;1.00
3478;DHT22;37937;61.490;23.506;2023-06-14T08:57:40;26.00;1.00
3478;DHT22;37937;61.490;23.506;2023-06-14T09:00:07;26.50;1.00
3478;DHT22;37937;61.490;23.506;2023-06-14T09:02:38;27.10;1.00
3478;DHT22;37937;61.490;23.506;2023-06-14T09:05:12;27.30;1.00
3478;DHT22;37937;61.490;23.506;2023-06-14T09:07:43;26.80;1.00
3478;DHT22;37937;61.490;23.506;2023-06-14T09:10:15;26.40;1.00
3478;DHT22;37937;61.490;23.506;2023-06-14T09:12:41;26.60;1.00
3478;DHT22;37937;61.490;23.506;2023-06-14T09:15:07;27.00;1.00
3478;DHT22;37937;61.490;23.506;2023-06-14T09:17:34;26.30;1.00
3478;DHT22;37937;61.490;23.506;2023-06-14T09:20:10;26.50;1.00
3478;DHT22;37937;61.490;23.506;2023-06-14T09:22:38;27.20;1.00
3478;DHT22;37937;61.490;23.506;2023-06-14T09:25:04;27.10;1.00
3478;DHT22;37937;61.490;23.506;2023-06-14T09:27:30;26.90;1.00
3478;DHT22;37937;61.490;23.506;2023-06-14T09:29:56;26.90;1.00
3478;DHT22;37937;61.490;23.506;2023-06-14T09:32:22;27.10;1.00
3478;DHT22;37937;61.490;23.506;2023-06-14T09:34:47;27.60;1.00
3478;DHT22;37937;61.490;23.506;2023-06-14T09:37:13;27.80;1.00
3478;DHT22;37937;61.490;23.506;2023-06-14T09:39:51;28.50;1.00
3478;DHT22;37937;61.490;23.506;2023-06-14T09:42:17;28.70;1.00
3478;DHT22;37937;61.490;23.506;2023-06-14T09:44:48;27.90;1.00
3478;DHT22;37937;61.490;23.506;2023-06-14T09:47:15;28.50;1.00
3478;DHT22;37937;61.490;23.506;2023-06-14T09:49:41;28.80;1.00
3478;DHT22;37937;61.490;23.506;2023-06-14T09:52:06;28.10;1.00
3478;DHT22;37937;61.490;23.506;2023-06-14T09:54:35;27.50;1.00
3478;DHT22;37937;61.490;23.506;2023-06-14T09:57:02;27.80;1.00
3478;DHT22;37937;61.490;23.506;2023-06-14T09:59:28;27.70;1.00
3478;DHT22;37937;61.490;23.506;2023-06-14T10:02:00;27.60;1.00
3478;DHT22;37937;61.490;23.506;2023-06-14T10:04:29;27.60;1.00
3478;DHT22;37937;61.490;23.506;2023-06-14T10:06:55;28.00;1.00
3478;DHT22;37937;61.490;23.506;2023-06-14T10:09:21;28.00;1.00
3478;DHT22;37937;61.490;23.506;2023-06-14T10:11:47;26.90;1.00
3478;DHT22;37937;61.490;23.506;2023-06-14T10:14:13;27.70;1.00
3478;DHT22;37937;61.490;23.506;2023-06-14T10:19:13;27.90;1.00
3478;DHT22;37937;61.490;23.506;2023-06-14T10:24:26;27.90;1.00
3478;DHT22;37937;61.490;23.506;2023-06-14T10:26:54;28.30;1.00
3478;DHT22;37937;61.490;23.506;2023-06-14T10:29:20;28.50;1.00
3478;DHT22;37937;61.490;23.506;2023-06-14T10:31:46;29.10;1.00
3478;DHT22;37937;61.490;23.506;2023-06-14T10:34:20;29.50;1.00
3478;DHT22;37937;61.490;23.506;2023-06-14T10:36:50;29.70;1.00
3478;DHT22;37937;61.490;23.506;2023-06-14T10:39:25;28.90;1.00
3478;DHT22;37937;61.490;23.506;2023-06-14T10:41:54;29.50;1.00
3478;DHT22;37937;61.490;23.506;2023-06-14T10:46:46;30.00;1.00
3478;DHT22;37937;61.490;23.506;2023-06-14T10:49:12;29.30;1.00
3478;DHT22;37937;61.490;23.506;2023-06-14T10:51:38;28.50;1.00
3478;DHT22;37937;61.490;23.506;2023-06-14T10:54:14;28.70;1.00
3478;DHT22;37937;61.490;23.506;2023-06-14T10:56:47;28.80;1.00
3478;DHT22;37937;61.490;23.506;2023-06-14T10:59:13;29.10;1.00
3478;DHT22;37937;61.490;23.506;2023-06-14T11:01:57;29.40;1.00
3478;DHT22;37937;61.490;23.506;2023-06-14T11:04:23;30.00;1.00
3478;DHT22;37937;61.490;23.506;2023-06-14T11:06:58;29.90;1.00
3478;DHT22;37937;61.490;23.506;2023-06-14T11:12:14;28.70;1.00
3478;DHT22;37937;61.490;23.506;2023-06-14T11:14:41;28.80;1.00
3478;DHT22;37937;61.490;23.506;2023-06-14T11:17:06;28.80;1.00
3478;DHT22;37937;61.490;23.506;2023-06-14T11:19:32;28.40;1.00
3478;DHT22;37937;61.490;23.506;2023-06-14T11:21:58;28.50;1.00
3478;DHT22;37937;61.490;23.506;2023-06-14T11:24:24;28.80;1.00
3478;DHT22;37937;61.490;23.506;2023-06-14T11:26:50;29.00;1.00
3478;DHT22;37937;61.490;23.506;2023-06-14T11:29:16;28.50;1.00
3478;DHT22;37937;61.490;23.506;2023-06-14T11:31:45;28.30;1.00
3478;DHT22;37937;61.490;23.506;2023-06-14T11:34:11;28.70;1.00
3478;DHT22;37937;61.490;23.506;2023-06-14T11:36:38;28.40;1.00
3478;DHT22;37937;61.490;23.506;2023-06-14T11:39:04;29.30;1.00
3478;DHT22;37937;61.490;23.506;2023-06-14T11:41:37;28.80;1.00
3478;DHT22;37937;61.490;23.506;2023-06-14T11:44:04;28.50;1.00
3478;DHT22;37937;61.490;23.506;2023-06-14T11:46:29;28.60;1.00
3478;DHT22;37937;61.490;23.506;2023-06-14T11:48:55;27.70;1.00
3478;DHT22;37937;61.490;23.506;2023-06-14T11:51:21;27.90;1.00
3478;DHT22;37937;61.490;23.506;2023-06-14T11:53:46;28.60;1.00
3478;DHT22;37937;61.490;23.506;2023-06-14T11:56:13;28.60;1.00
3478;DHT22;37937;61.490;23.506;2023-06-14T11:58:38;28.80;1.00
3478;DHT22;37937;61.490;23.506;2023-06-14T12:01:04;29.20;1.00
3478;DHT22;37937;61.490;23.506;2023-06-14T12:03:30;28.90;1.00
3478;DHT22;37937;61.490;23.506;2023-06-14T12:06:04;29.10;1.00
3478;DHT22;37937;61.490;23.506;2023-06-14T12:08:33;29.60;1.00
3478;DHT22;37937;61.490;23.506;2023-06-14T12:11:05;29.70;1.00
3478;DHT22;37937;61.490;23.506;2023-06-14T12:13:31;28.70;1.00
3478;DHT22;37937;61.490;23.506;2023-06-14T12:15:57;28.80;1.00
3478;DHT22;37937;61.490;23.506;2023-06-14T12:18:32;28.90;1.00
3478;DHT22;37937;61.490;23.506;2023-06-14T12:20:59;28.80;1.00
3478;DHT22;37937;61.490;23.506;2023-06-14T12:26:05;28.40;1.00
3478;DHT22;37937;61.490;23.506;2023-06-14T12:28:31;28.20;1.00
3478;DHT22;37937;61.490;23.506;2023-06-14T12:30:57;28.00;1.00
3478;DHT22;37937;61.490;23.506;2023-06-14T12:33:24;28.10;1.00
3478;DHT22;37937;61.490;23.506;2023-06-14T12:35:50;27.90;1.00
3478;DHT22;37937;61.490;23.506;2023-06-14T12:38:15;28.00;1.00
3478;DHT22;37937;61.490;23.506;2023-06-14T12:40:41;27.90;1.00
3478;DHT22;37937;61.490;23.506;2023-06-14T12:43:07;27.50;1.00
3478;DHT22;37937;61.490;23.506;2023-06-14T12:45:33;27.50;1.00
3478;DHT22;37937;61.490;23.506;2023-06-14T12:47:59;27.40;1.00
3478;DHT22;37937;61.490;23.506;2023-06-14T12:50:24;27.80;1.00
3478;DHT22;37937;61.490;23.506;2023-06-14T12:52:50;27.50;1.00
3478;DHT22;37937;61.490;23.506;2023-06-14T12:55:16;26.60;1.00
3478;DHT22;37937;61.490;23.506;2023-06-14T12:57:41;26.80;1.00
3478;DHT22;37937;61.490;23.506;2023-06-14T13:00:07;26.90;1.00
3478;DHT22;37937;61.490;23.506;2023-06-14T13:02:33;26.80;1.00
3478;DHT22;37937;61.490;23.506;2023-06-14T13:04:59;26.80;1.00
3478;DHT22;37937;61.490;23.506;2023-06-14T13:07:25;27.00;1.00
3478;DHT22;37937;61.490;23.506;2023-06-14T13:09:51;26.80;1.00
3478;DHT22;37937;61.490;23.506;2023-06-14T13:12:16;27.20;1.00
3478;DHT22;37937;61.490;23.506;2023-06-14T13:14:42;27.00;1.00
3478;DHT22;37937;61.490;23.506;2023-06-14T13:17:08;27.20;1.00
3478;DHT22;37937;61.490;23.506;2023-06-14T13:19:36;27.00;1.00
3478;DHT22;37937;61.490;23.506;2023-06-14T13:22:02;26.70;1.00
3478;DHT22;37937;61.490;23.506;2023-06-14T13:24:28;26.70;1.00
3478;DHT22;37937;61.490;23.506;2023-06-14T13:26:55;26.50;1.00
3478;DHT22;37937;61.490;23.506;2023-06-14T13:29:20;26.90;1.00
3478;DHT22;37937;61.490;23.506;2023-06-14T13:31:46;26.50;1.00
3478;DHT22;37937;61.490;23.506;2023-06-14T13:34:11;26.50;1.00
3478;DHT22;37937;61.490;23.506;2023-06-14T13:36:37;26.90;1.00
3478;DHT22;37937;61.490;23.506;2023-06-14T13:39:05;26.90;1.00
3478;DHT22;37937;61.490;23.506;2023-06-14T13:41:31;26.50;1.00
3478;DHT22;37937;61.490;23.506;2023-06-14T13:43:59;26.40;1.00
3478;DHT22;37937;61.490;23.506;2023-06-14T13:46:25;26.10;1.00
3478;DHT22;37937;61.490;23.506;2023-06-14T13:48:51;26.10;1.00
3478;DHT22;37937;61.490;23.506;2023-06-14T13:51:17;25.90;1.00
3478;DHT22;37937;61.490;23.506;2023-06-14T13:53:45;25.90;1.00
3478;DHT22;37937;61.490;23.506;2023-06-14T13:56:11;26.00;1.00
3478;DHT22;37937;61.490;23.506;2023-06-14T13:58:37;25.80;1.00
3478;DHT22;37937;61.490;23.506;2023-06-14T14:01:03;25.70;1.00
3478;DHT22;37937;61.490;23.506;2023-06-14T14:03:28;25.60;1.00
3478;DHT22;37937;61.490;23.506;2023-06-14T14:05:54;25.60;1.00
3478;DHT22;37937;61.490;23.506;2023-06-14T14:08:19;25.70;1.00
3478;DHT22;37937;61.490;23.506;2023-06-14T14:10:45;25.60;1.00
3478;DHT22;37937;61.490;23.506;2023-06-14T14:13:11;25.60;1.00
3478;DHT22;37937;61.490;23.506;2023-06-14T14:15:37;25.50;1.00
3478;DHT22;37937;61.490;23.506;2023-06-14T14:18:03;25.50;1.00
3478;DHT22;37937;61.490;23.506;2023-06-14T14:20:32;25.40;1.00
3478;DHT22;37937;61.490;23.506;2023-06-14T14:22:57;25.50;1.00
3478;DHT22;37937;61.490;23.506;2023-06-14T14:25:23;25.40;1.00
3478;DHT22;37937;61.490;23.506;2023-06-14T14:27:48;25.20;1.00
3478;DHT22;37937;61.490;23.506;2023-06-14T14:30:14;25.30;1.00
3478;DHT22;37937;61.490;23.506;2023-06-14T14:32:42;25.20;1.00
3478;DHT22;37937;61.490;23.506;2023-06-14T14:35:08;25.10;1.00
3478;DHT22;37937;61.490;23.506;2023-06-14T14:37:34;25.10;1.00
3478;DHT22;37937;61.490;23.506;2023-06-14T14:40:00;25.00;1.00
3478;DHT22;37937;61.490;23.506;2023-06-14T14:42:25;25.00;1.00
3478;DHT22;37937;61.490;23.506;2023-06-14T14:44:52;24.90;1.00
3478;DHT22;37937;61.490;23.506;2023-06-14T14:47:17;24.70;1.00
3478;DHT22;37937;61.490;23.506;2023-06-14T14:49:43;24.60;1.00
3478;DHT22;37937;61.490;23.506;2023-06-14T14:52:08;24.70;1.00
3478;DHT22;37937;61.490;23.506;2023-06-14T14:54:34;24.70;1.00
3478;DHT22;37937;61.490;23.506;2023-06-14T14:57:01;24.60;1.00
3478;DHT22;37937;61.490;23.506;2023-06-14T14:59:27;24.50;1.00
3478;DHT22;37937;61.490;23.506;2023-06-14T15:01:53;24.60;1.00
3478;DHT22;37937;61.490;23.506;2023-06-14T15:04:18;24.60;1.00
3478;DHT22;37937;61.490;23.506;2023-06-14T15:06:44;24.60;1.00
3478;DHT22;37937;61.490;23.506;2023-06-14T15:09:09;24.60;1.00
3478;DHT22;37937;61.490;23.506;2023-06-14T15:11:35;24.50;1.00
3478;DHT22;37937;61.490;23.506;2023-06-14T15:14:01;24.40;1.00
3478;DHT22;37937;61.490;23.506;2023-06-14T15:16:26;24.30;1.00
3478;DHT22;37937;61.490;23.506;2023-06-14T15:18:52;24.30;1.00
3478;DHT22;37937;61.490;23.506;2023-06-14T15:21:17;24.30;1.00
3478;DHT22;37937;61.490;23.506;2023-06-14T15:23:47;24.20;1.00
3478;DHT22;37937;61.490;23.506;2023-06-14T15:26:12;24.20;1.00
3478;DHT22;37937;61.490;23.506;2023-06-14T15:28:38;24.20;1.00
3478;DHT22;37937;61.490;23.506;2023-06-14T15:31:04;24.20;1.00
3478;DHT22;37937;61.490;23.506;2023-06-14T15:33:39;24.10;1.00
3478;DHT22;37937;61.490;23.506;2023-06-14T15:36:05;24.00;1.00
3478;DHT22;37937;61.490;23.506;2023-06-14T15:38:31;24.00;1.00
3478;DHT22;37937;61.490;23.506;2023-06-14T15:40:57;23.90;1.00
3478;DHT22;37937;61.490;23.506;2023-06-14T15:43:23;24.00;1.00
3478;DHT22;37937;61.490;23.506;2023-06-14T15:45:50;23.90;1.00
3478;DHT22;37937;61.490;23.506;2023-06-14T15:48:15;23.80;1.00
3478;DHT22;37937;61.490;23.506;2023-06-14T15:50:42;23.80;1.00